Time;durP1;ratioP1;P1;durP2;ratioP2;P2;SDS_P1;SDS_P2;PMS_P1;PMS_P2;Temp;Humidity;BMP_temperature;BMP_pressure;BME280_temperature;BME280_humidity;BME280_pressure;Samples;Min_cycle;Max_cycle;Signal;HPM_P1;HPM_P2
2023/01/06 00:01:29;;;;;;;9.38;5.45;;;;;;;-145.63;100.00;61273.97;4779737;30;20039;-62
2023/01/06 00:03:59;;;;;;;11.00;5.35;;;;;;;-145.63;100.00;61273.97;4781044;30;20023;-62
2023/01/06 00:06:26;;;;;;;10.10;5.32;;;;;;;-145.63;100.00;61273.97;4782369;30;20039;-63
2023/01/06 00:08:57;;;;;;;9.50;5.60;;;;;;;-145.63;100.00;61273.97;4782758;30;20042;-63
2023/01/06 00:11:23;;;;;;;7.53;5.07;;;;;;;-145.63;100.00;61273.97;4784171;30;20024;-63
2023/01/06 00:13:49;;;;;;;10.77;5.28;;;;;;;-145.63;100.00;61273.97;4789889;29;20027;-62
2023/01/06 00:16:17;;;;;;;8.20;4.93;;;;;;;-145.63;100.00;61273.97;4791820;30;20046;-62
2023/01/06 00:18:44;;;;;;;9.77;5.07;;;;;;;-145.63;100.00;61273.97;4782565;30;20048;-62
2023/01/06 00:21:11;;;;;;;9.40;4.85;;;;;;;-145.63;100.00;61273.97;4782472;30;20323;-63
2023/01/06 00:23:38;;;;;;;7.70;5.00;;;;;;;-145.63;100.00;61273.97;4782485;30;20043;-63
2023/01/06 00:26:05;;;;;;;9.32;5.15;;;;;;;-145.63;100.00;61273.97;4782304;30;20036;-62
2023/01/06 00:28:31;;;;;;;8.88;4.60;;;;;;;-145.63;100.00;61273.97;4782436;30;20035;-63
2023/01/06 00:30:56;;;;;;;8.18;5.30;;;;;;;-145.63;100.00;61273.97;4782151;30;20036;-62
2023/01/06 00:33:23;;;;;;;6.68;4.70;;;;;;;-145.63;100.00;61273.97;4782418;30;20071;-62
2023/01/06 00:35:48;;;;;;;8.20;5.10;;;;;;;-145.63;100.00;61273.97;4782498;30;20036;-62
2023/01/06 00:38:14;;;;;;;9.02;5.43;;;;;;;-145.63;100.00;61273.97;4782022;30;20073;-62
2023/01/06 00:40:39;;;;;;;8.60;4.88;;;;;;;-145.63;100.00;61273.97;4782239;30;20032;-63
2023/01/06 00:43:05;;;;;;;9.82;5.15;;;;;;;-145.63;100.00;61273.97;4781940;30;20319;-63
2023/01/06 00:45:31;;;;;;;8.15;5.00;;;;;;;-145.63;100.00;61273.97;4782501;30;20042;-63
2023/01/06 00:47:56;;;;;;;8.57;5.63;;;;;;;-145.63;100.00;61273.97;4782034;30;20031;-61
2023/01/06 00:50:22;;;;;;;10.65;5.05;;;;;;;-145.63;100.00;61273.97;4782310;30;20044;-62
2023/01/06 00:52:48;;;;;;;8.85;5.18;;;;;;;-145.63;100.00;61273.97;4782340;30;20067;-62
2023/01/06 00:55:14;;;;;;;9.40;4.97;;;;;;;-145.63;100.00;61273.97;4799811;29;20055;-62
2023/01/06 00:57:40;;;;;;;9.10;6.13;;;;;;;-145.63;100.00;61273.97;4795831;29;20032;-63
2023/01/06 01:00:08;;;;;;;7.95;5.38;;;;;;;-145.63;100.00;61273.97;4782055;30;20027;-63
2023/01/06 01:02:34;;;;;;;7.95;5.38;;;;;;;-145.63;100.00;61273.97;4764104;30;20080;-62
2023/01/06 01:04:59;;;;;;;10.93;5.65;;;;;;;-145.63;100.00;61273.97;4777497;30;20062;-64
2023/01/06 01:07:25;;;;;;;8.05;5.05;;;;;;;-145.63;100.00;61273.97;4781812;30;20114;-63
2023/01/06 01:09:51;;;;;;;7.75;4.93;;;;;;;-145.63;100.00;61273.97;4781668;30;20031;-62
2023/01/06 01:12:16;;;;;;;7.72;4.82;;;;;;;-145.63;100.00;61273.97;4781524;30;20318;-61
2023/01/06 01:14:45;;;;;;;7.97;5.30;;;;;;;-145.63;100.00;61273.97;4779626;30;20107;-61
2023/01/06 01:17:11;;;;;;;7.88;5.40;;;;;;;-145.63;100.00;61273.97;4781278;30;20312;-62
2023/01/06 01:19:38;;;;;;;6.70;5.13;;;;;;;-145.63;100.00;61273.97;4781541;30;20320;-62
2023/01/06 01:22:03;;;;;;;7.18;5.03;;;;;;;-145.63;100.00;61273.97;4783459;30;20327;-62
2023/01/06 01:24:29;;;;;;;7.75;5.18;;;;;;;-145.63;100.00;61273.97;4796896;29;20057;-62
2023/01/06 01:26:55;;;;;;;8.65;5.40;;;;;;;-145.63;100.00;61273.97;4781777;30;20308;-62
2023/01/06 01:29:20;;;;;;;6.50;5.00;;;;;;;-145.63;100.00;61273.97;4780257;30;20088;-62
2023/01/06 01:31:46;;;;;;;7.47;4.75;;;;;;;-145.63;100.00;61273.97;4780920;30;20031;-62
2023/01/06 01:34:14;;;;;;;8.43;5.18;;;;;;;-145.63;100.00;61273.97;4781038;30;20046;-62
2023/01/06 01:37:00;;;;;;;6.68;4.45;;;;;;;-145.63;100.00;61273.97;4789196;30;20363;-62
2023/01/06 01:39:28;;;;;;;8.25;5.13;;;;;;;-145.63;100.00;61273.97;4780701;30;20071;-61
2023/01/06 01:41:55;;;;;;;7.50;5.22;;;;;;;-145.63;100.00;61273.97;4780176;30;20036;-62
2023/01/06 01:44:54;;;;;;;6.95;4.28;;;;;;;-145.63;100.00;61273.97;4780936;30;20044;-61
2023/01/06 01:47:20;;;;;;;7.72;5.00;;;;;;;-145.63;100.00;61273.97;4780495;30;20057;-62
2023/01/06 01:49:51;;;;;;;7.63;4.43;;;;;;;-145.63;100.00;61273.97;4780922;30;20102;-61
2023/01/06 01:52:18;;;;;;;8.85;4.78;;;;;;;-145.63;100.00;61273.97;4780761;30;20040;-62
2023/01/06 01:54:46;;;;;;;9.20;5.13;;;;;;;-145.63;100.00;61273.97;4791108;30;20240;-63
2023/01/06 01:57:20;;;;;;;7.25;4.82;;;;;;;-145.63;100.00;61273.97;4780511;30;20046;-64
2023/01/06 01:59:46;;;;;;;6.47;4.85;;;;;;;-145.63;100.00;61273.97;4763132;30;20024;-63
2023/01/06 02:02:14;;;;;;;7.80;4.85;;;;;;;-145.63;100.00;61273.97;4777555;30;20182;-64
2023/01/06 02:04:43;;;;;;;8.70;5.43;;;;;;;-145.63;100.00;61273.97;4780522;30;20110;-62
2023/01/06 02:07:10;;;;;;;7.30;5.05;;;;;;;-145.63;100.00;61273.97;4780299;30;20035;-62
2023/01/06 02:10:12;;;;;;;7.88;5.22;;;;;;;-145.63;100.00;61273.97;4780638;30;20024;-62
2023/01/06 02:12:40;;;;;;;7.18;4.72;;;;;;;-145.63;100.00;61273.97;4779585;30;20042;-63
2023/01/06 02:15:27;;;;;;;7.82;5.15;;;;;;;-145.63;100.00;61273.97;4780788;30;20031;-63
2023/01/06 02:18:25;;;;;;;6.65;4.72;;;;;;;-145.63;100.00;61273.97;4762901;30;20036;-63
2023/01/06 02:21:04;;;;;;;7.57;4.43;;;;;;;-145.63;100.00;61273.97;4779440;30;20141;-63
2023/01/06 02:24:01;;;;;;;7.63;4.63;;;;;;;-145.63;100.00;61273.97;4793699;30;20035;-63
2023/01/06 02:26:48;;;;;;;6.60;4.78;;;;;;;-145.63;100.00;61273.97;4781721;29;20035;-62
2023/01/06 02:29:41;;;;;;;8.23;4.85;;;;;;;-145.63;100.00;61273.97;4794073;30;20130;-63
2023/01/06 02:32:40;;;;;;;9.18;5.28;;;;;;;-145.63;100.00;61273.97;4780109;30;20134;-63
2023/01/06 02:35:26;;;;;;;5.97;4.60;;;;;;;-145.63;100.00;61273.97;4780370;30;20054;-64
2023/01/06 02:38:01;;;;;;;8.80;5.10;;;;;;;-145.63;100.00;61273.97;4779696;30;20055;-63
2023/01/06 02:41:01;;;;;;;8.25;5.75;;;;;;;-145.63;100.00;61273.97;4780335;30;20047;-63
2023/01/06 02:43:43;;;;;;;7.43;5.07;;;;;;;-145.63;100.00;61273.97;4779142;30;20044;-62
2023/01/06 02:46:16;;;;;;;7.55;4.97;;;;;;;-145.63;100.00;61273.97;4779895;30;20043;-62
2023/01/06 02:48:57;;;;;;;8.98;5.47;;;;;;;-145.63;100.00;61273.97;4780175;30;20052;-63
2023/01/06 02:51:23;;;;;;;8.48;5.15;;;;;;;-145.63;100.00;61273.97;4780259;30;20046;-63
2023/01/06 02:53:57;;;;;;;7.68;5.20;;;;;;;-145.63;100.00;61273.97;4788511;30;20031;-63
2023/01/06 02:56:28;;;;;;;10.90;5.70;;;;;;;-145.63;100.00;61273.97;4797740;29;20057;-62
2023/01/06 02:59:03;;;;;;;7.85;5.30;;;;;;;-145.63;100.00;61273.97;4780248;29;20035;-62
2023/01/06 03:01:41;;;;;;;7.28;5.07;;;;;;;-145.63;100.00;61273.97;4779949;30;20069;-62
2023/01/06 03:04:13;;;;;;;7.00;4.53;;;;;;;-145.63;100.00;61273.97;4780026;30;20319;-63
2023/01/06 03:06:43;;;;;;;7.95;5.00;;;;;;;-145.63;100.00;61273.97;4778652;30;20039;-64
2023/01/06 03:09:13;;;;;;;7.18;5.15;;;;;;;-145.63;100.00;61273.97;4793874;29;20142;-64
2023/01/06 03:11:41;;;;;;;7.88;4.60;;;;;;;-145.63;100.00;61273.97;4779811;30;20100;-63
2023/01/06 03:14:21;;;;;;;7.82;4.88;;;;;;;-145.63;100.00;61273.97;4779726;30;20032;-62
2023/01/06 03:16:47;;;;;;;7.25;4.97;;;;;;;-145.63;100.00;61273.97;4779802;30;20051;-62
2023/01/06 03:19:13;;;;;;;7.35;4.72;;;;;;;-145.63;100.00;61273.97;4779816;30;20312;-61
2023/01/06 03:21:42;;;;;;;9.85;5.10;;;;;;;-145.63;100.00;61273.97;4792857;29;20039;-62
2023/01/06 03:24:09;;;;;;;7.05;4.60;;;;;;;-145.63;100.00;61273.97;4797354;30;20037;-62
2023/01/06 03:26:36;;;;;;;8.23;4.78;;;;;;;-145.63;100.00;61273.97;4781008;29;20342;-62
2023/01/06 03:29:05;;;;;;;7.47;4.95;;;;;;;-145.63;100.00;61273.97;4779892;30;20104;-62
2023/01/06 03:31:42;;;;;;;7.40;4.40;;;;;;;-145.63;100.00;61273.97;4779890;30;20032;-62
2023/01/06 03:34:16;;;;;;;7.60;4.85;;;;;;;-145.63;100.00;61273.97;4778686;30;20081;-62
2023/01/06 03:37:03;;;;;;;8.88;4.45;;;;;;;-145.63;100.00;61273.97;4778141;30;20047;-64
2023/01/06 03:39:43;;;;;;;7.60;5.03;;;;;;;-145.63;100.00;61273.97;4778647;30;20078;-63
2023/01/06 03:45:31;;;;;;;8.70;5.03;;;;;;;-145.63;100.00;61273.97;4778035;30;20063;-64
2023/01/06 03:48:04;;;;;;;8.40;4.88;;;;;;;-145.63;100.00;61273.97;4781520;30;20036;-64
2023/01/06 03:50:44;;;;;;;7.78;4.65;;;;;;;-145.63;100.00;61273.97;4782673;30;20046;-64
2023/01/06 03:53:34;;;;;;;7.22;4.88;;;;;;;-145.63;100.00;61273.97;4781010;30;20046;-62
2023/01/06 03:56:23;;;;;;;9.00;5.03;;;;;;;-145.63;100.00;61273.97;4768642;30;20059;-63
2023/01/06 03:58:53;;;;;;;7.38;4.97;;;;;;;-145.63;100.00;61273.97;4782558;30;20039;-64
2023/01/06 04:01:21;;;;;;;7.97;4.78;;;;;;;-145.63;100.00;61273.97;4781264;30;20088;-63
2023/01/06 04:03:50;;;;;;;7.20;5.07;;;;;;;-145.63;100.00;61273.97;4782708;30;20228;-64
2023/01/06 04:06:15;;;;;;;8.10;5.18;;;;;;;-145.63;100.00;61273.97;4782364;30;20350;-63
2023/01/06 04:08:41;;;;;;;7.15;4.53;;;;;;;-145.63;100.00;61273.97;4781694;30;20032;-64
2023/01/06 04:11:07;;;;;;;7.28;4.28;;;;;;;-145.63;100.00;61273.97;4782502;30;20067;-64
2023/01/06 04:13:32;;;;;;;7.97;4.68;;;;;;;-145.63;100.00;61273.97;4778068;30;20039;-64
2023/01/06 04:15:58;;;;;;;8.57;4.65;;;;;;;-145.63;100.00;61273.97;4781639;30;20085;-63
2023/01/06 04:18:23;;;;;;;7.43;4.85;;;;;;;-145.63;100.00;61273.97;4781025;30;20051;-65
2023/01/06 04:20:49;;;;;;;7.38;4.18;;;;;;;-145.63;100.00;61273.97;4782781;30;20328;-65
2023/01/06 04:23:14;;;;;;;10.82;4.93;;;;;;;-145.63;100.00;61273.97;4793449;30;20223;-65
2023/01/06 04:25:40;;;;;;;7.22;4.78;;;;;;;-145.63;100.00;61273.97;4790899;29;20088;-65
2023/01/06 04:28:06;;;;;;;8.35;5.25;;;;;;;-145.63;100.00;61273.97;4782199;30;20028;-65
2023/01/06 04:30:31;;;;;;;9.48;4.90;;;;;;;-145.63;100.00;61273.97;4782218;30;20032;-65
2023/01/06 04:32:57;;;;;;;7.53;4.78;;;;;;;-145.63;100.00;61273.97;4782294;30;20228;-64
2023/01/06 04:35:22;;;;;;;7.63;4.65;;;;;;;-145.63;100.00;61273.97;4782173;30;20043;-65
2023/01/06 04:37:48;;;;;;;8.63;5.28;;;;;;;-145.63;100.00;61273.97;4782034;30;20031;-65
2023/01/06 04:40:13;;;;;;;7.35;4.47;;;;;;;-145.63;100.00;61273.97;4782213;30;20036;-66
2023/01/06 04:45:23;;;;;;;7.90;5.05;;;;;;;-145.63;100.00;61273.97;4782268;30;20032;-64
2023/01/06 04:47:49;;;;;;;6.90;4.43;;;;;;;-145.63;100.00;61273.97;4782192;30;20327;-65
2023/01/06 04:50:15;;;;;;;13.90;8.43;;;;;;;-145.63;100.00;61273.97;4776800;30;20060;-65
2023/01/06 04:52:41;;;;;;;6.90;4.55;;;;;;;-145.63;100.00;61273.97;4776319;30;20073;-63
2023/01/06 04:55:07;;;;;;;8.15;5.00;;;;;;;-145.63;100.00;61273.97;4796528;30;20043;-64
2023/01/06 04:57:33;;;;;;;8.90;5.22;;;;;;;-145.63;100.00;61273.97;4774622;30;20040;-64
2023/01/06 04:59:58;;;;;;;5.95;4.05;;;;;;;-145.63;100.00;61273.97;4782055;30;20085;-65
2023/01/06 05:02:24;;;;;;;8.68;5.13;;;;;;;-145.63;100.00;61273.97;4781273;30;20032;-63
2023/01/06 05:04:49;;;;;;;7.78;4.45;;;;;;;-145.63;100.00;61273.97;4781728;30;20044;-64
2023/01/06 05:07:15;;;;;;;7.43;4.45;;;;;;;-145.63;100.00;61273.97;4781653;30;20027;-64
2023/01/06 05:09:40;;;;;;;6.22;4.15;;;;;;;-145.63;100.00;61273.97;4775829;30;20073;-63
2023/01/06 05:12:07;;;;;;;9.43;4.88;;;;;;;-145.63;100.00;61273.97;4778725;30;20044;-65
2023/01/06 05:14:32;;;;;;;8.75;4.72;;;;;;;-145.63;100.00;61273.97;4780014;30;20063;-65
2023/01/06 05:16:58;;;;;;;7.60;4.78;;;;;;;-145.63;100.00;61273.97;4781133;30;20079;-65
2023/01/06 05:19:23;;;;;;;6.57;4.10;;;;;;;-145.63;100.00;61273.97;4780839;30;20027;-65
2023/01/06 05:21:49;;;;;;;8.00;4.55;;;;;;;-145.63;100.00;61273.97;4795498;30;20043;-66
2023/01/06 05:24:15;;;;;;;7.45;4.60;;;;;;;-145.63;100.00;61273.97;4799128;29;20088;-64
2023/01/06 05:26:40;;;;;;;8.10;4.45;;;;;;;-145.63;100.00;61273.97;4782530;29;20031;-63
2023/01/06 05:29:06;;;;;;;10.43;5.30;;;;;;;-145.63;100.00;61273.97;4781253;30;20262;-65
2023/01/06 05:31:31;;;;;;;6.85;4.45;;;;;;;-145.63;100.00;61273.97;4781187;30;20047;-64
2023/01/06 05:33:57;;;;;;;7.28;4.75;;;;;;;-145.63;100.00;61273.97;4780333;30;20046;-64
2023/01/06 05:36:22;;;;;;;8.20;4.30;;;;;;;-145.63;100.00;61273.97;4780969;30;20044;-65
2023/01/06 05:38:53;;;;;;;10.02;5.22;;;;;;;-145.63;100.00;61273.97;4781000;30;20039;-64
2023/01/06 05:41:19;;;;;;;7.78;4.57;;;;;;;-145.63;100.00;61273.97;4780948;30;20085;-64
2023/01/06 05:43:44;;;;;;;11.07;5.30;;;;;;;-145.63;100.00;61273.97;4781145;30;20062;-63
2023/01/06 05:46:11;;;;;;;8.32;5.10;;;;;;;-145.63;100.00;61273.97;4780770;30;20339;-63
2023/01/06 05:48:37;;;;;;;9.52;5.25;;;;;;;-145.63;100.00;61273.97;4781139;30;20044;-63
2023/01/06 05:51:09;;;;;;;8.73;5.15;;;;;;;-145.63;100.00;61273.97;4779979;30;20039;-65
2023/01/06 05:53:36;;;;;;;13.13;4.93;;;;;;;-145.63;100.00;61273.97;4788064;30;20039;-64
2023/01/06 05:56:03;;;;;;;9.77;5.00;;;;;;;-145.63;100.00;61273.97;4798792;29;20038;-64
2023/01/06 05:58:31;;;;;;;7.32;4.90;;;;;;;-145.63;100.00;61273.97;4790763;29;20035;-63
2023/01/06 06:00:57;;;;;;;8.40;4.75;;;;;;;-145.63;100.00;61273.97;4779329;30;20356;-63
2023/01/06 06:03:23;;;;;;;8.02;4.70;;;;;;;-145.63;100.00;61273.97;4780198;30;20152;-64
2023/01/06 06:05:48;;;;;;;8.40;4.95;;;;;;;-145.63;100.00;61273.97;4780496;30;20038;-64
2023/01/06 06:08:14;;;;;;;8.90;5.40;;;;;;;-145.63;100.00;61273.97;4779331;30;20031;-65
2023/01/06 06:10:39;;;;;;;9.50;5.07;;;;;;;-145.63;100.00;61273.97;4780531;30;20220;-64
2023/01/06 06:13:05;;;;;;;10.07;6.35;;;;;;;-145.63;100.00;61273.97;4779448;30;20312;-65
2023/01/06 06:15:30;;;;;;;9.63;5.57;;;;;;;-145.63;100.00;61273.97;4779032;30;20093;-65
2023/01/06 06:17:56;;;;;;;7.50;5.00;;;;;;;-145.63;100.00;61273.97;4780375;30;20034;-64
2023/01/06 06:20:21;;;;;;;8.52;5.07;;;;;;;-145.63;100.00;61273.97;4779352;30;20039;-64
2023/01/06 06:22:47;;;;;;;8.85;5.45;;;;;;;-145.63;100.00;61273.97;4788258;30;20148;-64
2023/01/06 06:25:13;;;;;;;8.00;5.30;;;;;;;-145.63;100.00;61273.97;4792748;29;20032;-65
2023/01/06 06:27:38;;;;;;;6.97;4.55;;;;;;;-145.63;100.00;61273.97;4780436;30;20074;-65
2023/01/06 06:30:05;;;;;;;10.05;5.55;;;;;;;-145.63;100.00;61273.97;4779416;30;20036;-65
2023/01/06 06:32:31;;;;;;;10.20;5.63;;;;;;;-145.63;100.00;61273.97;4780341;30;20040;-65
2023/01/06 06:34:57;;;;;;;8.80;5.70;;;;;;;-145.63;100.00;61273.97;4779911;30;20167;-65
2023/01/06 06:37:22;;;;;;;8.82;5.30;;;;;;;-145.63;100.00;61273.97;4778997;30;20107;-65
2023/01/06 06:39:48;;;;;;;7.65;4.88;;;;;;;-145.63;100.00;61273.97;4780188;30;20028;-66
2023/01/06 06:42:13;;;;;;;8.70;5.05;;;;;;;-145.63;100.00;61273.97;4793931;30;20028;-65
2023/01/06 06:44:39;;;;;;;9.48;5.10;;;;;;;-145.63;100.00;61273.97;4786091;30;20332;-64
2023/01/06 06:47:05;;;;;;;8.63;5.22;;;;;;;-145.63;100.00;61273.97;4787389;29;20054;-65
2023/01/06 06:49:30;;;;;;;9.95;5.60;;;;;;;-145.63;100.00;61273.97;4786131;30;20079;-65
2023/01/06 06:51:56;;;;;;;10.80;5.70;;;;;;;-145.63;100.00;61273.97;4787388;29;20259;-64
2023/01/06 06:54:21;;;;;;;9.27;5.55;;;;;;;-145.63;100.00;61273.97;4788892;29;20042;-65
2023/01/06 06:56:47;;;;;;;11.73;5.30;;;;;;;-145.63;100.00;61273.97;4782051;29;20072;-66
2023/01/06 06:59:12;;;;;;;11.20;5.97;;;;;;;-145.63;100.00;61273.97;4782443;29;20031;-65
2023/01/06 07:01:38;;;;;;;10.20;5.60;;;;;;;-145.63;100.00;61273.97;4780473;30;20305;-65
2023/01/06 07:04:04;;;;;;;10.48;5.10;;;;;;;-145.63;100.00;61273.97;4780380;30;20039;-65
2023/01/06 07:06:30;;;;;;;15.38;5.53;;;;;;;-145.63;100.00;61273.97;4786363;29;20043;-64
2023/01/06 07:08:56;;;;;;;12.07;6.03;;;;;;;-145.63;100.00;61273.97;4787819;30;20043;-64
2023/01/06 07:11:22;;;;;;;8.75;5.50;;;;;;;-145.63;100.00;61273.97;4785202;30;20060;-64
2023/01/06 07:13:48;;;;;;;10.30;5.60;;;;;;;-145.63;100.00;61273.97;4786885;29;20263;-65
2023/01/06 07:16:14;;;;;;;11.23;5.57;;;;;;;-145.63;100.00;61273.97;4789812;29;20051;-64
2023/01/06 07:18:40;;;;;;;10.60;5.78;;;;;;;-145.63;100.00;61273.97;4789733;30;20039;-67
2023/01/06 07:21:06;;;;;;;9.27;5.25;;;;;;;-145.63;100.00;61273.97;4791838;30;20092;-64
2023/01/06 07:23:32;;;;;;;10.77;5.25;;;;;;;-145.63;100.00;61273.97;4788947;29;20054;-65
2023/01/06 07:26:00;;;;;;;10.60;5.72;;;;;;;-145.63;100.00;61273.97;4790837;29;20090;-65
2023/01/06 07:28:27;;;;;;;10.23;6.70;;;;;;;-145.63;100.00;61273.97;4787480;30;20043;-66
2023/01/06 07:30:53;;;;;;;10.05;6.70;;;;;;;-145.63;100.00;61273.97;4791164;30;20102;-66
2023/01/06 07:33:19;;;;;;;10.05;5.85;;;;;;;-145.63;100.00;61273.97;4787118;29;20091;-66
2023/01/06 07:35:45;;;;;;;9.48;6.00;;;;;;;-145.63;100.00;61273.97;4790946;29;20095;-65
2023/01/06 07:38:10;;;;;;;10.40;5.88;;;;;;;-145.63;100.00;61273.97;4790419;30;20460;-66
2023/01/06 07:40:36;;;;;;;9.75;5.70;;;;;;;-145.63;100.00;61273.97;4796905;30;20038;-65
2023/01/06 07:43:10;;;;;;;10.02;6.05;;;;;;;-145.63;100.00;61273.97;4796370;29;20047;-65
2023/01/06 07:45:36;;;;;;;10.73;6.35;;;;;;;-145.63;100.00;61273.97;4783329;30;20219;-65
2023/01/06 07:48:02;;;;;;;9.82;6.40;;;;;;;-145.63;100.00;61273.97;4778626;30;20051;-66
2023/01/06 07:50:28;;;;;;;11.32;5.82;;;;;;;-145.63;100.00;61273.97;4781267;30;20047;-64
2023/01/06 07:52:57;;;;;;;9.48;5.88;;;;;;;-145.63;100.00;61273.97;4793320;30;20035;-65
2023/01/06 07:55:23;;;;;;;12.15;6.40;;;;;;;-145.63;100.00;61273.97;4800881;29;20219;-66
2023/01/06 07:57:48;;;;;;;8.48;5.40;;;;;;;-145.63;100.00;61273.97;4791474;29;20108;-66
2023/01/06 08:00:14;;;;;;;9.13;6.05;;;;;;;-145.63;100.00;61273.97;4782207;30;20102;-66
2023/01/06 08:02:40;;;;;;;11.05;6.07;;;;;;;-145.63;100.00;61273.97;4782235;30;20036;-65
2023/01/06 08:05:06;;;;;;;9.98;6.30;;;;;;;-145.63;100.00;61273.97;4781428;30;20032;-66
2023/01/06 08:07:31;;;;;;;10.68;5.95;;;;;;;-145.63;100.00;61273.97;4781472;30;20119;-66
2023/01/06 08:09:57;;;;;;;10.85;6.43;;;;;;;-145.63;100.00;61273.97;4781554;30;20384;-65
2023/01/06 08:12:23;;;;;;;12.13;7.07;;;;;;;-145.63;100.00;61273.97;4782466;30;20092;-65
2023/01/06 08:14:48;;;;;;;10.85;6.47;;;;;;;-145.63;100.00;61273.97;4781487;30;20027;-66
2023/01/06 08:17:14;;;;;;;11.38;6.10;;;;;;;-145.63;100.00;61273.97;4781606;30;20319;-65
2023/01/06 08:19:39;;;;;;;10.32;6.55;;;;;;;-145.63;100.00;61273.97;4782323;30;20032;-68
2023/01/06 08:22:05;;;;;;;10.23;5.70;;;;;;;-145.63;100.00;61273.97;4784524;30;20120;-66
2023/01/06 08:24:31;;;;;;;11.63;6.63;;;;;;;-145.63;100.00;61273.97;4799804;29;20039;-66
2023/01/06 08:26:57;;;;;;;10.35;6.50;;;;;;;-145.63;100.00;61273.97;4781999;30;20107;-65
2023/01/06 08:29:26;;;;;;;11.18;6.95;;;;;;;-145.63;100.00;61273.97;4782126;30;20039;-65
2023/01/06 08:31:52;;;;;;;13.57;7.70;;;;;;;-145.63;100.00;61273.97;4782172;30;20048;-65
2023/01/06 08:34:17;;;;;;;11.10;6.47;;;;;;;-145.63;100.00;61273.97;4781912;30;20094;-67
2023/01/06 08:36:44;;;;;;;11.60;7.28;;;;;;;-145.63;100.00;61273.97;4776578;30;20031;-64
2023/01/06 08:39:11;;;;;;;11.82;6.95;;;;;;;-145.63;100.00;61273.97;4782197;30;20059;-65
2023/01/06 08:41:37;;;;;;;12.38;6.97;;;;;;;-145.63;100.00;61273.97;4781862;30;20308;-65
2023/01/06 08:44:03;;;;;;;14.35;7.18;;;;;;;-145.63;100.00;61273.97;4781307;30;20111;-66
2023/01/06 08:46:28;;;;;;;12.75;7.07;;;;;;;-145.63;100.00;61273.97;4781802;30;20091;-64
2023/01/06 08:48:55;;;;;;;12.60;7.05;;;;;;;-145.63;100.00;61273.97;4781872;30;20241;-64
2023/01/06 08:51:22;;;;;;;11.35;6.68;;;;;;;-145.63;100.00;61273.97;4781876;30;20043;-65
2023/01/06 08:53:48;;;;;;;10.18;6.45;;;;;;;-145.63;100.00;61273.97;4783954;30;20036;-65
2023/01/06 08:56:17;;;;;;;12.02;6.55;;;;;;;-145.63;100.00;61273.97;4780897;30;20031;-63
2023/01/06 08:58:43;;;;;;;10.88;6.25;;;;;;;-145.63;100.00;61273.97;4780021;30;20031;-67
2023/01/06 09:01:17;;;;;;;12.32;7.05;;;;;;;-145.63;100.00;61273.97;4778947;30;20071;-65
2023/01/06 09:03:42;;;;;;;13.07;6.63;;;;;;;-145.63;100.00;61273.97;4781665;30;20101;-64
2023/01/06 09:06:08;;;;;;;10.85;5.57;;;;;;;-145.63;100.00;61273.97;4780356;30;20265;-67
2023/01/06 09:08:33;;;;;;;10.60;5.78;;;;;;;-145.63;100.00;61273.97;4781446;30;20036;-66
2023/01/06 09:11:08;;;;;;;19.40;10.75;;;;;;;-145.63;100.00;61273.97;4781524;30;20051;-66
2023/01/06 09:13:34;;;;;;;10.38;6.05;;;;;;;-145.63;100.00;61273.97;4781555;30;20039;-67
2023/01/06 09:16:01;;;;;;;8.48;5.25;;;;;;;-145.63;100.00;61273.97;4781300;30;20059;-67
2023/01/06 09:18:26;;;;;;;9.43;5.70;;;;;;;-145.63;100.00;61273.97;4781401;30;20093;-67
2023/01/06 09:20:52;;;;;;;10.35;6.38;;;;;;;-145.63;100.00;61273.97;4781266;30;20331;-68
2023/01/06 09:23:19;;;;;;;14.70;6.43;;;;;;;-145.63;100.00;61273.97;4792508;30;20058;-66
2023/01/06 09:25:45;;;;;;;12.10;5.50;;;;;;;-145.63;100.00;61273.97;4791422;29;20032;-68
2023/01/06 09:28:11;;;;;;;10.13;5.93;;;;;;;-145.63;100.00;61273.97;4781325;30;20035;-68
2023/01/06 09:30:36;;;;;;;11.02;6.35;;;;;;;-145.63;100.00;61273.97;4781103;30;20211;-68
2023/01/06 09:33:02;;;;;;;12.77;6.43;;;;;;;-145.63;100.00;61273.97;4780870;30;20066;-68
2023/01/06 09:35:27;;;;;;;16.77;6.57;;;;;;;-145.63;100.00;61273.97;4794465;29;20141;-67
2023/01/06 09:37:53;;;;;;;11.85;6.00;;;;;;;-145.63;100.00;61273.97;4780893;30;20062;-67
2023/01/06 09:40:24;;;;;;;10.90;6.03;;;;;;;-145.63;100.00;61273.97;4780955;30;20027;-66
2023/01/06 09:43:14;;;;;;;12.57;6.25;;;;;;;-145.63;100.00;61273.97;4780938;30;20258;-67
2023/01/06 09:45:48;;;;;;;12.30;6.82;;;;;;;-145.63;100.00;61273.97;4781126;30;20027;-67
2023/01/06 09:48:20;;;;;;;16.38;7.93;;;;;;;-145.63;100.00;61273.97;4763040;30;20032;-67
2023/01/06 09:50:58;;;;;;;14.07;6.85;;;;;;;-145.63;100.00;61273.97;4778161;30;20043;-66
2023/01/06 09:53:36;;;;;;;12.82;7.47;;;;;;;-145.63;100.00;61273.97;4785158;30;20324;-68
2023/01/06 09:56:06;;;;;;;12.23;7.30;;;;;;;-145.63;100.00;61273.97;4789038;30;20054;-68
2023/01/06 09:58:40;;;;;;;12.20;6.90;;;;;;;-145.63;100.00;61273.97;4780644;30;20030;-68
2023/01/06 10:01:15;;;;;;;13.07;6.95;;;;;;;-145.63;100.00;61273.97;4780482;30;20031;-65
2023/01/06 10:03:44;;;;;;;11.07;7.38;;;;;;;-145.63;100.00;61273.97;4781027;30;20300;-67
2023/01/06 10:06:36;;;;;;;12.32;7.22;;;;;;;-145.63;100.00;61273.97;4761642;30;20055;-66
2023/01/06 10:09:17;;;;;;;13.52;7.15;;;;;;;-145.63;100.00;61273.97;4779143;30;20211;-68
2023/01/06 10:11:51;;;;;;;10.95;6.85;;;;;;;-145.63;100.00;61273.97;4778856;30;20047;-67
2023/01/06 10:14:46;;;;;;;10.52;6.15;;;;;;;-145.63;100.00;61273.97;4780412;30;20092;-67
2023/01/06 10:17:24;;;;;;;12.85;6.40;;;;;;;-145.63;100.00;61273.97;4779072;30;20116;-68
2023/01/06 10:20:08;;;;;;;12.02;6.80;;;;;;;-145.63;100.00;61273.97;4780325;30;20101;-67
2023/01/06 10:23:12;;;;;;;10.55;6.10;;;;;;;-145.63;100.00;61273.97;4786463;30;20031;-67
2023/01/06 10:25:59;;;;;;;10.48;6.30;;;;;;;-145.63;100.00;61273.97;4791763;29;20106;-67
2023/01/06 10:28:33;;;;;;;16.13;6.90;;;;;;;-145.63;100.00;61273.97;4780243;30;20042;-66
2023/01/06 10:31:07;;;;;;;11.65;6.47;;;;;;;-145.63;100.00;61273.97;4780350;30;20028;-67
2023/01/06 10:33:37;;;;;;;14.30;6.50;;;;;;;-145.63;100.00;61273.97;4780445;30;20031;-67
2023/01/06 10:36:09;;;;;;;10.35;6.45;;;;;;;-145.63;100.00;61273.97;4779897;30;20043;-66
2023/01/06 10:38:42;;;;;;;11.23;6.65;;;;;;;-145.63;100.00;61273.97;4780146;30;20131;-67
2023/01/06 10:41:45;;;;;;;12.45;6.43;;;;;;;-145.63;100.00;61273.97;4793812;30;20036;-67
2023/01/06 10:44:12;;;;;;;13.30;7.10;;;;;;;-145.63;100.00;61273.97;4780034;30;20220;-68
2023/01/06 10:46:38;;;;;;;11.27;6.97;;;;;;;-145.63;100.00;61273.97;4779764;30;20031;-67
2023/01/06 10:49:14;;;;;;;12.63;6.57;;;;;;;-145.63;100.00;61273.97;4780004;30;20124;-67
2023/01/06 10:51:44;;;;;;;13.07;6.80;;;;;;;-145.63;100.00;61273.97;4780102;30;20031;-67
2023/01/06 10:54:13;;;;;;;13.20;7.10;;;;;;;-145.63;100.00;61273.97;4788103;30;20223;-67
2023/01/06 10:56:44;;;;;;;14.18;8.20;;;;;;;-145.63;100.00;61273.97;4787023;30;20031;-66
2023/01/06 10:59:11;;;;;;;16.50;7.63;;;;;;;-145.63;100.00;61273.97;4786811;30;20035;-66
2023/01/06 11:01:55;;;;;;;12.10;6.55;;;;;;;-145.63;100.00;61273.97;4780029;30;20035;-67
2023/01/06 11:04:22;;;;;;;11.43;7.00;;;;;;;-145.63;100.00;61273.97;4779546;30;20038;-67
2023/01/06 11:06:57;;;;;;;10.32;6.90;;;;;;;-145.63;100.00;61273.97;4779847;30;20134;-67
2023/01/06 11:09:35;;;;;;;12.32;7.00;;;;;;;-145.63;100.00;61273.97;4762196;30;20024;-67
2023/01/06 11:12:08;;;;;;;12.50;6.80;;;;;;;-145.63;100.00;61273.97;4778135;30;20048;-66
2023/01/06 11:14:35;;;;;;;13.02;7.22;;;;;;;-145.63;100.00;61273.97;4779809;30;20046;-68
2023/01/06 11:17:08;;;;;;;11.80;7.28;;;;;;;-145.63;100.00;61273.97;4793399;30;20031;-68
2023/01/06 11:19:39;;;;;;;14.25;7.03;;;;;;;-145.63;100.00;61273.97;4779284;30;20035;-66
2023/01/06 11:22:35;;;;;;;10.00;6.65;;;;;;;-145.63;100.00;61273.97;4780177;30;20385;-67
2023/01/06 11:25:03;;;;;;;14.65;7.82;;;;;;;-145.63;100.00;61273.97;4779789;30;20036;-67